Time;durP1;ratioP1;P1;durP2;ratioP2;P2;SDS_P1;SDS_P2;PMS_P1;PMS_P2;Temp;Humidity;BMP_temperature;BMP_pressure;BME280_temperature;BME280_humidity;BME280_pressure;Samples;Min_cycle;Max_cycle;Signal;HPM_P1;HPM_P2
2023/01/09 00:02:25;;;;;;;9.98;6.95;;;10.10;99.90;;;;;;1996471;70;21097;-92
2023/01/09 00:05:18;;;;;;;8.23;6.60;;;10.10;99.90;;;;;;2005300;70;21078;-92
2023/01/09 00:11:30;;;;;;;6.72;5.42;;;10.00;99.90;;;;;;2063907;68;22547;-94
2023/01/09 00:14:22;;;;;;;8.35;5.70;;;10.00;99.90;;;;;;2045861;69;21155;-91
2023/01/09 00:17:22;;;;;;;7.20;5.22;;;9.80;99.90;;;;;;2034012;70;21073;-91
2023/01/09 00:20:17;;;;;;;5.08;4.25;;;9.80;99.90;;;;;;2034665;69;21069;-91
2023/01/09 00:23:09;;;;;;;1.50;0.90;;;9.90;99.90;;;;;;1988408;72;21159;-92
2023/01/09 00:26:05;;;;;;;1.05;0.40;;;10.20;99.90;;;;;;2033774;69;21153;-92
2023/01/09 00:28:57;;;;;;;0.80;0.10;;;10.00;99.90;;;;;;2058478;69;21134;-93
2023/01/09 00:31:51;;;;;;;2.15;0.28;;;9.80;99.90;;;;;;2001489;70;21166;-94
2023/01/09 00:34:44;;;;;;;0.23;0.20;;;9.60;99.90;;;;;;2032548;70;21103;-93
2023/01/09 00:37:35;;;;;;;0.20;0.20;;;9.70;99.90;;;;;;2033620;70;21109;-93
2023/01/09 00:40:27;;;;;;;0.10;0.10;;;9.60;99.90;;;;;;2032811;70;21118;-93
2023/01/09 00:43:20;;;;;;;0.37;0.20;;;9.70;99.90;;;;;;2033491;70;21016;-96
2023/01/09 00:46:16;;;;;;;0.80;0.00;;;10.00;99.90;;;;;;2036315;70;21031;-95
2023/01/09 00:49:09;;;;;;;0.35;0.13;;;10.10;99.90;;;;;;2036791;70;21175;-92
2023/01/09 00:52:02;;;;;;;0.10;0.10;;;10.20;99.90;;;;;;2035858;70;21425;-94
2023/01/09 00:54:54;;;;;;;0.10;0.10;;;10.20;99.90;;;;;;2036183;70;21090;-94
2023/01/09 00:57:46;;;;;;;0.28;0.10;;;10.00;99.90;;;;;;2036142;70;21067;-95
2023/01/09 01:00:39;;;;;;;0.10;0.10;;;9.90;99.90;;;;;;2036051;70;21455;-94
2023/01/09 01:03:30;;;;;;;0.35;0.20;;;9.90;99.90;;;;;;2037145;70;21600;-94
2023/01/09 01:09:32;;;;;;;0.17;0.10;;;9.90;99.90;;;;;;2037178;70;21011;-94
2023/01/09 01:12:26;;;;;;;0.10;0.10;;;9.90;99.90;;;;;;2036829;70;21086;-95
2023/01/09 01:15:20;;;;;;;0.35;0.00;;;9.70;99.90;;;;;;2037140;70;21184;-95
2023/01/09 01:18:30;;;;;;;0.20;0.10;;;9.50;99.90;;;;;;2037113;70;21096;-95
2023/01/09 01:21:22;;;;;;;0.20;0.10;;;9.60;99.90;;;;;;2035786;70;21066;-95
2023/01/09 01:24:22;;;;;;;0.35;0.20;;;9.50;99.90;;;;;;2035860;70;21055;-95
2023/01/09 01:27:14;;;;;;;0.10;0.10;;;9.40;99.90;;;;;;2035675;70;21019;-95
2023/01/09 01:30:12;;;;;;;0.28;0.10;;;9.50;99.90;;;;;;2035403;70;21198;-94
2023/01/09 01:33:03;;;;;;;1.30;0.17;;;9.60;99.90;;;;;;2032793;70;21019;-92
2023/01/09 03:12:12;;;;;;;0.20;0.20;;;10.00;99.90;;;;;;2013688;71;22618;-94
2023/01/09 03:17:52;;;;;;;1.05;0.40;;;9.50;99.90;;;;;;1947642;72;22194;-93
2023/01/09 06:48:50;;;;;;;1.75;0.98;;;8.10;99.90;;;;;;1947531;72;22097;-90
2023/01/09 06:51:41;;;;;;;1.00;0.50;;;8.00;99.90;;;;;;1923638;73;21166;-90
2023/01/09 06:54:45;;;;;;;1.12;0.70;;;8.00;99.90;;;;;;1930362;73;21138;-89
2023/01/09 06:57:37;;;;;;;1.55;0.80;;;8.00;99.90;;;;;;1920527;73;21110;-90
2023/01/09 07:03:20;;;;;;;1.50;0.85;;;7.80;99.90;;;;;;1955255;72;22150;-89
2023/01/09 07:06:12;;;;;;;0.55;0.50;;;7.80;99.90;;;;;;1919784;73;21175;-91
2023/01/09 07:09:05;;;;;;;2.45;0.50;;;7.80;99.90;;;;;;1928755;73;21061;-91
2023/01/09 07:11:56;;;;;;;0.72;0.50;;;7.80;99.90;;;;;;1917190;75;21083;-92
2023/01/09 07:14:53;;;;;;;0.88;0.47;;;7.80;99.90;;;;;;1917633;75;21099;-89
2023/01/09 07:17:52;;;;;;;1.52;0.50;;;7.80;99.90;;;;;;1907098;74;21137;-89
2023/01/09 07:20:45;;;;;;;1.90;0.72;;;7.70;99.90;;;;;;1916774;75;21086;-90
2023/01/09 07:23:45;;;;;;;1.80;0.70;;;7.80;99.90;;;;;;1918708;73;21122;-93
2023/01/09 07:26:37;;;;;;;1.12;0.60;;;7.70;99.90;;;;;;1917870;75;21091;-96
2023/01/09 07:29:32;;;;;;;1.98;0.80;;;7.60;99.90;;;;;;1918606;75;21109;-93
2023/01/09 07:32:24;;;;;;;0.82;0.30;;;7.60;99.90;;;;;;1919189;75;21102;-96
2023/01/09 07:35:18;;;;;;;1.15;0.60;;;7.50;99.90;;;;;;1919883;75;21094;-95
